Time;durP1;ratioP1;P1;durP2;ratioP2;P2;SDS_P1;SDS_P2;PMS_P1;PMS_P2;Temp;Humidity;BMP_temperature;BMP_pressure;BME280_temperature;BME280_humidity;BME280_pressure;Samples;Min_cycle;Max_cycle;Signal;HPM_P1;HPM_P2
2021/12/08 00:00:36;;;;;;;11.15;8.57;;;;;;;;;;4948785;28;20039;-76
2021/12/08 00:03:05;;;;;;;10.73;8.15;;;;;;;;;;4951139;28;20118;-76
2021/12/08 00:05:33;;;;;;;9.38;7.50;;;;;;;;;;4933931;29;20586;-77
2021/12/08 00:08:00;;;;;;;10.98;7.90;;;;;;;;;;4943283;28;20219;-74
2021/12/08 00:10:52;;;;;;;7.25;6.53;;;;;;;;;;4965752;23;20061;-75
2021/12/08 00:13:16;;;;;;;9.90;7.00;;;;;;;;;;4969544;28;20105;-74
2021/12/08 00:15:44;;;;;;;7.32;6.40;;;;;;;;;;4939042;28;20122;-74
2021/12/08 00:18:13;;;;;;;7.90;7.10;;;;;;;;;;4942544;28;20039;-74
2021/12/08 00:20:42;;;;;;;8.25;6.65;;;;;;;;;;4934396;28;20142;-74
2021/12/08 00:23:09;;;;;;;7.85;7.05;;;;;;;;;;4933380;28;20416;-74
2021/12/08 00:25:39;;;;;;;9.30;7.05;;;;;;;;;;4942812;28;20309;-74
2021/12/08 00:28:12;;;;;;;12.07;9.02;;;;;;;;;;4941979;29;20043;-74
2021/12/08 00:30:40;;;;;;;10.25;8.60;;;;;;;;;;4941759;28;20073;-74
2021/12/08 00:33:09;;;;;;;11.13;7.63;;;;;;;;;;4930125;29;20047;-74
2021/12/08 00:35:37;;;;;;;12.07;8.68;;;;;;;;;;4942606;28;20048;-74
2021/12/08 00:38:05;;;;;;;11.63;8.63;;;;;;;;;;4946107;29;20051;-74
2021/12/08 00:40:32;;;;;;;10.23;7.72;;;;;;;;;;4945687;28;20066;-74
2021/12/08 00:43:00;;;;;;;10.27;8.05;;;;;;;;;;4939265;28;20626;-74
2021/12/08 00:45:29;;;;;;;10.77;7.95;;;;;;;;;;4925347;28;20047;-74
2021/12/08 00:47:57;;;;;;;10.65;8.52;;;;;;;;;;4934347;29;20471;-74
2021/12/08 00:50:25;;;;;;;10.18;7.13;;;;;;;;;;4950465;28;20070;-74
2021/12/08 00:52:53;;;;;;;9.93;7.50;;;;;;;;;;4942656;28;20043;-74
2021/12/08 00:55:21;;;;;;;9.35;7.20;;;;;;;;;;4951586;28;20471;-74
2021/12/08 00:57:48;;;;;;;7.78;6.07;;;;;;;;;;4947025;28;20043;-74
2021/12/08 01:00:18;;;;;;;8.45;7.40;;;;;;;;;;4933077;28;20071;-74
2021/12/08 01:02:46;;;;;;;10.20;7.18;;;;;;;;;;4941126;29;20039;-74
2021/12/08 01:05:15;;;;;;;9.38;7.63;;;;;;;;;;4945585;28;20070;-74
2021/12/08 01:07:43;;;;;;;10.27;7.25;;;;;;;;;;4947611;28;20150;-74
2021/12/08 01:10:13;;;;;;;9.40;7.78;;;;;;;;;;4945213;28;20205;-75
2021/12/08 01:13:00;;;;;;;12.45;8.13;;;;;;;;;;4945856;28;20075;-74
2021/12/08 01:15:28;;;;;;;11.32;8.25;;;;;;;;;;4941678;28;20130;-74
2021/12/08 01:17:56;;;;;;;7.25;6.28;;;;;;;;;;4940219;28;20045;-74
2021/12/08 01:20:24;;;;;;;8.00;6.63;;;;;;;;;;4950149;28;20039;-74
2021/12/08 01:22:51;;;;;;;9.60;6.55;;;;;;;;;;4949123;29;20039;-74
2021/12/08 01:25:19;;;;;;;7.55;5.95;;;;;;;;;;4943121;28;20046;-74
2021/12/08 01:27:46;;;;;;;11.18;8.30;;;;;;;;;;4946568;28;20043;-74
2021/12/08 01:30:14;;;;;;;10.25;7.82;;;;;;;;;;4943048;28;20137;-74
2021/12/08 01:32:41;;;;;;;10.27;7.50;;;;;;;;;;4931987;28;20142;-74
2021/12/08 01:35:10;;;;;;;12.38;8.95;;;;;;;;;;4930406;28;20492;-74
2021/12/08 01:37:39;;;;;;;8.88;7.72;;;;;;;;;;4933969;29;20067;-74
2021/12/08 01:40:07;;;;;;;7.45;6.45;;;;;;;;;;4952967;28;20503;-74
2021/12/08 01:42:42;;;;;;;9.50;6.63;;;;;;;;;;4951077;28;20078;-74
2021/12/08 01:47:56;;;;;;;8.57;6.95;;;;;;;;;;4938698;29;20213;-75
2021/12/08 01:50:24;;;;;;;8.18;6.72;;;;;;;;;;4937977;28;20039;-74
2021/12/08 01:52:51;;;;;;;11.43;7.80;;;;;;;;;;4954820;28;20142;-75
2021/12/08 01:55:19;;;;;;;10.65;8.60;;;;;;;;;;4946570;28;20040;-74
2021/12/08 01:57:47;;;;;;;7.28;6.57;;;;;;;;;;4944079;28;20142;-74
2021/12/08 02:00:19;;;;;;;8.07;6.82;;;;;;;;;;4934952;28;20130;-74
2021/12/08 02:02:56;;;;;;;6.22;5.60;;;;;;;;;;4951032;28;20043;-74
2021/12/08 02:05:24;;;;;;;9.05;6.03;;;;;;;;;;4943737;28;20036;-74
2021/12/08 02:07:51;;;;;;;6.65;5.88;;;;;;;;;;4952175;28;20061;-74
2021/12/08 02:10:19;;;;;;;12.18;7.70;;;;;;;;;;4930132;28;20126;-75
2021/12/08 02:12:47;;;;;;;8.57;6.95;;;;;;;;;;4934222;28;20134;-74
2021/12/08 02:15:16;;;;;;;8.73;6.85;;;;;;;;;;4950575;28;20138;-75
2021/12/08 02:17:48;;;;;;;11.38;7.43;;;;;;;;;;4920826;29;20071;-74
2021/12/08 02:20:16;;;;;;;12.30;7.20;;;;;;;;;;4951932;28;20095;-74
2021/12/08 02:22:43;;;;;;;8.38;6.25;;;;;;;;;;4946452;29;20055;-74
2021/12/08 02:25:14;;;;;;;8.75;6.78;;;;;;;;;;4936211;28;20039;-74
2021/12/08 02:27:42;;;;;;;8.75;7.05;;;;;;;;;;4942399;28;20139;-75
2021/12/08 02:30:21;;;;;;;12.77;8.48;;;;;;;;;;4962978;28;20083;-74
2021/12/08 02:46:51;;;;;;;12.00;7.25;;;;;;;;;;4939454;28;20071;-74
2021/12/08 02:49:20;;;;;;;7.55;6.65;;;;;;;;;;4932980;29;20059;-74
2021/12/08 02:51:48;;;;;;;11.88;8.07;;;;;;;;;;4941238;28;20579;-74
2021/12/08 02:54:16;;;;;;;11.48;8.18;;;;;;;;;;4953824;28;20138;-74
2021/12/08 02:56:43;;;;;;;15.38;8.50;;;;;;;;;;4938200;28;20138;-74
2021/12/08 02:59:11;;;;;;;7.35;6.15;;;;;;;;;;4949288;29;20067;-74
2021/12/08 03:01:38;;;;;;;9.18;7.07;;;;;;;;;;4953637;28;20395;-74
2021/12/08 03:04:07;;;;;;;7.22;6.53;;;;;;;;;;4943914;28;20565;-74
2021/12/08 03:06:35;;;;;;;8.93;6.60;;;;;;;;;;4934995;28;20071;-75
2021/12/08 03:09:04;;;;;;;9.98;7.22;;;;;;;;;;4935309;28;20134;-74
2021/12/08 03:11:31;;;;;;;12.52;7.97;;;;;;;;;;4941071;28;20042;-74
2021/12/08 03:14:07;;;;;;;7.80;5.65;;;;;;;;;;4947413;28;20107;-74
2021/12/08 03:16:35;;;;;;;10.50;6.82;;;;;;;;;;4937260;28;20491;-74
2021/12/08 03:19:04;;;;;;;7.28;5.07;;;;;;;;;;4938012;28;20051;-74
2021/12/08 03:21:32;;;;;;;5.47;4.75;;;;;;;;;;4925821;28;20528;-74
2021/12/08 03:27:13;;;;;;;6.28;5.22;;;;;;;;;;4952596;28;20082;-74
2021/12/08 03:30:11;;;;;;;6.85;5.82;;;;;;;;;;4951204;28;20178;-74
2021/12/08 03:32:40;;;;;;;5.70;4.85;;;;;;;;;;4950137;28;20051;-74
2021/12/08 03:35:08;;;;;;;8.85;6.00;;;;;;;;;;4930422;29;20106;-74
2021/12/08 03:37:37;;;;;;;8.65;5.68;;;;;;;;;;4935021;28;20472;-74
2021/12/08 03:40:07;;;;;;;6.82;5.50;;;;;;;;;;4948542;28;20063;-74
2021/12/08 03:42:37;;;;;;;7.43;6.35;;;;;;;;;;4966502;28;20078;-74
2021/12/08 03:45:08;;;;;;;8.55;5.88;;;;;;;;;;4943281;28;20138;-74
2021/12/08 03:47:38;;;;;;;7.35;6.63;;;;;;;;;;4950182;29;20381;-74
2021/12/08 03:50:07;;;;;;;6.53;5.20;;;;;;;;;;4950670;28;20126;-74
2021/12/08 03:52:36;;;;;;;6.82;5.22;;;;;;;;;;4946879;28;20051;-74
2021/12/08 03:55:04;;;;;;;8.18;5.70;;;;;;;;;;4920495;29;20137;-74
2021/12/08 03:57:34;;;;;;;7.00;6.00;;;;;;;;;;4958312;28;20165;-74
2021/12/08 04:00:01;;;;;;;7.20;5.72;;;;;;;;;;4946974;28;20410;-74
2021/12/08 04:02:29;;;;;;;10.98;5.55;;;;;;;;;;4944278;28;20036;-74
2021/12/08 04:04:56;;;;;;;9.02;6.53;;;;;;;;;;4933003;29;20047;-75
2021/12/08 04:07:25;;;;;;;7.20;5.20;;;;;;;;;;4947704;28;20403;-74
2021/12/08 04:09:53;;;;;;;7.35;6.00;;;;;;;;;;4946211;29;20078;-74
2021/12/08 04:12:22;;;;;;;5.85;5.35;;;;;;;;;;4943955;28;20081;-75
2021/12/08 04:14:54;;;;;;;7.90;6.47;;;;;;;;;;4942464;28;20133;-74
2021/12/08 04:17:25;;;;;;;9.07;7.35;;;;;;;;;;4951005;28;20054;-75
2021/12/08 04:19:54;;;;;;;9.20;6.30;;;;;;;;;;4932344;28;20134;-74
2021/12/08 04:22:32;;;;;;;10.15;5.90;;;;;;;;;;4950017;28;20089;-74
2021/12/08 04:25:02;;;;;;;7.28;5.20;;;;;;;;;;4955340;28;20086;-74
2021/12/08 04:27:32;;;;;;;8.57;5.85;;;;;;;;;;4946632;28;20043;-75
2021/12/08 04:30:00;;;;;;;7.20;4.93;;;;;;;;;;4949067;28;20452;-74
2021/12/08 04:32:30;;;;;;;9.23;7.10;;;;;;;;;;4947288;28;20135;-75
2021/12/08 04:34:59;;;;;;;8.73;5.68;;;;;;;;;;4945824;28;20107;-74
2021/12/08 04:37:33;;;;;;;7.57;5.22;;;;;;;;;;4943765;28;20067;-74
2021/12/08 04:40:40;;;;;;;7.47;5.60;;;;;;;;;;4943704;28;20097;-74
2021/12/08 04:43:16;;;;;;;7.03;6.18;;;;;;;;;;4898111;29;20044;-74
2021/12/08 04:45:57;;;;;;;7.05;5.63;;;;;;;;;;4905796;29;20067;-74
2021/12/08 05:09:27;;;;;;;5.40;4.82;;;;;;;;;;4904456;29;20044;-74
2021/12/08 05:12:15;;;;;;;9.35;6.07;;;;;;;;;;4914900;29;20196;-74
2021/12/08 05:14:47;;;;;;;6.72;5.72;;;;;;;;;;4837527;29;20515;-74
2021/12/08 05:17:17;;;;;;;8.48;6.22;;;;;;;;;;4844784;29;20184;-74
2021/12/08 05:19:47;;;;;;;9.32;6.28;;;;;;;;;;4911513;29;20058;-74
2021/12/08 05:22:22;;;;;;;6.55;5.13;;;;;;;;;;4908602;29;20131;-75
2021/12/08 05:24:52;;;;;;;8.40;5.60;;;;;;;;;;4916746;29;20760;-75
2021/12/08 05:27:22;;;;;;;6.65;5.30;;;;;;;;;;4905152;29;20076;-75
2021/12/08 05:29:52;;;;;;;6.22;5.28;;;;;;;;;;4892775;29;20052;-74
2021/12/08 05:32:20;;;;;;;7.03;5.13;;;;;;;;;;4909789;29;20563;-74
2021/12/08 05:34:48;;;;;;;6.43;5.57;;;;;;;;;;4905423;29;20052;-74
2021/12/08 05:37:16;;;;;;;7.65;5.38;;;;;;;;;;4894593;29;20044;-74
2021/12/08 05:39:44;;;;;;;6.03;5.43;;;;;;;;;;4906984;29;20483;-74
2021/12/08 05:42:26;;;;;;;9.52;6.07;;;;;;;;;;4907085;29;20040;-74
2021/12/08 05:44:53;;;;;;;8.80;6.65;;;;;;;;;;4892873;29;20143;-74
2021/12/08 05:47:23;;;;;;;8.98;6.03;;;;;;;;;;4906505;29;20048;-74
2021/12/08 05:49:51;;;;;;;11.05;6.95;;;;;;;;;;4912360;29;20088;-74
2021/12/08 05:52:18;;;;;;;12.55;7.35;;;;;;;;;;4934685;28;20089;-74
2021/12/08 05:54:47;;;;;;;7.82;5.90;;;;;;;;;;4947105;28;20048;-74
2021/12/08 05:57:28;;;;;;;7.68;6.15;;;;;;;;;;4949912;28;20070;-75
2021/12/08 05:59:55;;;;;;;9.18;6.10;;;;;;;;;;4948435;28;20071;-74
2021/12/08 06:02:25;;;;;;;10.13;7.03;;;;;;;;;;4937032;28;20126;-74
2021/12/08 06:04:52;;;;;;;6.75;5.75;;;;;;;;;;4943428;28;21002;-75
2021/12/08 06:07:21;;;;;;;7.65;5.50;;;;;;;;;;4940329;28;20047;-74
2021/12/08 06:09:49;;;;;;;6.60;5.40;;;;;;;;;;4913248;28;20142;-75
2021/12/08 06:12:17;;;;;;;8.20;6.10;;;;;;;;;;4948541;28;20086;-75
2021/12/08 06:14:45;;;;;;;10.98;7.07;;;;;;;;;;4932334;28;20147;-74
2021/12/08 06:20:35;;;;;;;7.55;6.40;;;;;;;;;;4901425;29;20036;-76
2021/12/08 06:23:04;;;;;;;8.13;6.60;;;;;;;;;;4907134;29;20486;-76
2021/12/08 06:25:31;;;;;;;8.20;6.60;;;;;;;;;;4897049;29;20048;-76
2021/12/08 06:27:59;;;;;;;7.57;5.55;;;;;;;;;;4881358;29;20044;-76
2021/12/08 06:30:28;;;;;;;6.75;6.05;;;;;;;;;;4896570;29;20123;-76
2021/12/08 06:32:55;;;;;;;9.30;6.82;;;;;;;;;;4896635;29;20055;-76
2021/12/08 06:35:26;;;;;;;6.95;5.45;;;;;;;;;;4901202;29;20055;-76
2021/12/08 06:37:54;;;;;;;8.82;6.50;;;;;;;;;;4886440;29;20052;-76
2021/12/08 06:40:27;;;;;;;8.38;6.13;;;;;;;;;;4899177;29;20132;-76
2021/12/08 06:42:58;;;;;;;8.07;6.82;;;;;;;;;;4894808;29;20468;-76
2021/12/08 06:45:29;;;;;;;10.63;7.00;;;;;;;;;;4904702;29;20059;-77
2021/12/08 06:47:59;;;;;;;11.25;7.60;;;;;;;;;;4894875;29;20449;-77
2021/12/08 06:50:28;;;;;;;12.52;8.77;;;;;;;;;;4909358;29;20142;-76
2021/12/08 06:52:56;;;;;;;15.73;11.05;;;;;;;;;;4893949;29;20052;-77
2021/12/08 06:55:26;;;;;;;19.05;14.88;;;;;;;;;;4876922;29;20129;-77
2021/12/08 06:57:59;;;;;;;12.00;9.32;;;;;;;;;;4888112;29;20112;-77
2021/12/08 07:00:54;;;;;;;12.25;8.80;;;;;;;;;;4896084;29;20944;-76
2021/12/08 07:06:05;;;;;;;18.75;12.85;;;;;;;;;;4897909;29;20036;-77
2021/12/08 07:08:35;;;;;;;18.25;13.50;;;;;;;;;;4902096;29;20040;-76
2021/12/08 07:11:03;;;;;;;17.55;12.45;;;;;;;;;;4902683;29;20067;-77
2021/12/08 07:13:32;;;;;;;22.77;16.75;;;;;;;;;;4901238;29;20136;-77
2021/12/08 07:16:24;;;;;;;20.13;15.40;;;;;;;;;;4909179;29;20063;-77
2021/12/08 07:18:56;;;;;;;22.52;15.73;;;;;;;;;;4908899;29;20416;-76
2021/12/08 07:21:37;;;;;;;18.00;13.35;;;;;;;;;;4904974;29;20046;-77
2021/12/08 07:24:08;;;;;;;15.30;11.45;;;;;;;;;;4909577;29;20305;-77
2021/12/08 07:26:38;;;;;;;16.13;12.07;;;;;;;;;;4907115;29;20041;-77
2021/12/08 07:29:08;;;;;;;17.35;11.07;;;;;;;;;;4902005;29;20417;-77
2021/12/08 07:31:40;;;;;;;15.20;11.52;;;;;;;;;;4899747;29;20131;-76
2021/12/08 07:34:14;;;;;;;14.13;10.55;;;;;;;;;;4889712;29;20040;-77
2021/12/08 07:36:43;;;;;;;13.85;11.50;;;;;;;;;;4883865;29;20075;-76
2021/12/08 07:39:14;;;;;;;15.50;11.82;;;;;;;;;;4903726;29;20576;-77
2021/12/08 07:41:47;;;;;;;12.57;9.25;;;;;;;;;;4911746;29;20189;-77
2021/12/08 07:44:16;;;;;;;14.82;10.52;;;;;;;;;;4908607;29;20078;-77
2021/12/08 07:46:48;;;;;;;12.98;9.82;;;;;;;;;;4921075;29;20135;-77
2021/12/08 07:49:18;;;;;;;15.02;11.73;;;;;;;;;;4893706;29;20123;-77
2021/12/08 07:52:03;;;;;;;14.68;11.93;;;;;;;;;;4907512;29;20119;-76
2021/12/08 07:54:32;;;;;;;12.18;8.65;;;;;;;;;;4920263;29;20405;-76
2021/12/08 07:57:00;;;;;;;11.80;8.27;;;;;;;;;;4927666;29;20071;-76
2021/12/08 07:59:28;;;;;;;14.20;9.75;;;;;;;;;;4896924;29;20070;-76
2021/12/08 08:01:57;;;;;;;12.93;8.68;;;;;;;;;;4904964;29;20036;-76
2021/12/08 08:04:26;;;;;;;10.82;8.07;;;;;;;;;;4904506;29;20055;-77
2021/12/08 08:06:58;;;;;;;9.60;8.13;;;;;;;;;;4901658;29;20501;-77
2021/12/08 08:09:27;;;;;;;;;;;;;;;;;;4911807;29;20751;-76
2021/12/08 08:11:57;;;;;;;8.50;7.60;;;;;;;;;;4910970;29;19937;-76
2021/12/08 08:14:29;;;;;;;12.00;8.73;;;;;;;;;;4882732;29;20055;-76
2021/12/08 08:16:58;;;;;;;12.75;7.70;;;;;;;;;;4916760;29;20127;-77
2021/12/08 08:19:29;;;;;;;12.85;7.85;;;;;;;;;;4914350;29;20040;-77
2021/12/08 08:22:05;;;;;;;10.95;8.40;;;;;;;;;;4912338;29;20101;-76
2021/12/08 08:24:33;;;;;;;9.02;8.10;;;;;;;;;;4911966;29;20128;-77
2021/12/08 08:27:03;;;;;;;10.23;8.05;;;;;;;;;;4891958;29;20055;-76
2021/12/08 08:29:30;;;;;;;8.85;7.93;;;;;;;;;;4904247;29;20466;-76
2021/12/08 08:32:00;;;;;;;13.02;7.97;;;;;;;;;;4906328;29;20072;-77
2021/12/08 08:34:34;;;;;;;11.52;8.45;;;;;;;;;;4878743;29;20052;-76
2021/12/08 08:37:02;;;;;;;10.43;8.07;;;;;;;;;;4889606;29;20059;-76
2021/12/08 08:39:33;;;;;;;12.10;9.30;;;;;;;;;;4909117;29;20150;-77
2021/12/08 08:42:05;;;;;;;10.82;8.63;;;;;;;;;;4856797;29;20111;-77
2021/12/08 08:44:53;;;;;;;11.38;8.70;;;;;;;;;;4846087;29;20260;-77
2021/12/08 08:47:24;;;;;;;13.50;10.20;;;;;;;;;;4871149;29;20501;-77
2021/12/08 08:49:52;;;;;;;10.60;8.70;;;;;;;;;;4872812;29;20105;-77
2021/12/08 08:52:21;;;;;;;11.35;9.15;;;;;;;;;;4862287;29;20313;-77
2021/12/08 08:54:52;;;;;;;10.63;8.07;;;;;;;;;;4864252;29;20610;-77
2021/12/08 08:57:26;;;;;;;11.95;8.40;;;;;;;;;;4871392;29;20102;-77
2021/12/08 08:59:56;;;;;;;10.05;7.55;;;;;;;;;;4869496;29;20041;-77
2021/12/08 09:02:27;;;;;;;13.82;8.32;;;;;;;;;;4851733;29;20136;-77
2021/12/08 09:04:57;;;;;;;10.32;7.95;;;;;;;;;;4868348;29;20105;-77
2021/12/08 09:07:30;;;;;;;11.43;7.88;;;;;;;;;;4860501;29;20046;-77
2021/12/08 09:10:00;;;;;;;10.95;7.40;;;;;;;;;;4846984;29;20081;-77
2021/12/08 09:12:34;;;;;;;12.80;8.80;;;;;;;;;;4866644;29;20054;-77
2021/12/08 09:15:31;;;;;;;9.73;7.82;;;;;;;;;;4889346;29;20104;-77
2021/12/08 09:18:06;;;;;;;9.52;8.30;;;;;;;;;;4854141;29;20061;-77
2021/12/08 09:20:53;;;;;;;8.32;7.20;;;;;;;;;;4850343;29;20562;-77
2021/12/08 09:23:24;;;;;;;9.13;7.53;;;;;;;;;;4849323;29;20045;-77
2021/12/08 09:25:55;;;;;;;11.98;8.40;;;;;;;;;;4864865;29;20514;-77
2021/12/08 09:28:28;;;;;;;14.23;8.63;;;;;;;;;;4860980;29;20052;-78
2021/12/08 09:30:57;;;;;;;;;;;;;;;;;;4854941;29;20152;-78
2021/12/08 09:33:27;;;;;;;10.68;7.72;;;;;;;;;;4852743;29;19935;-78
2021/12/08 09:35:57;;;;;;;12.48;7.85;;;;;;;;;;4851938;29;20050;-78
2021/12/08 09:38:33;;;;;;;13.18;9.63;;;;;;;;;;4835985;29;20049;-78
2021/12/08 09:41:03;;;;;;;12.77;9.68;;;;;;;;;;4858780;29;20522;-78
2021/12/08 09:43:56;;;;;;;12.35;10.13;;;;;;;;;;4835803;29;20137;-78
2021/12/08 09:46:27;;;;;;;13.98;11.23;;;;;;;;;;4859941;29;20056;-78
2021/12/08 09:49:00;;;;;;;13.93;10.93;;;;;;;;;;4852424;29;20092;-78
2021/12/08 09:51:28;;;;;;;13.15;10.43;;;;;;;;;;4851592;29;20102;-78
2021/12/08 09:53:56;;;;;;;14.57;11.57;;;;;;;;;;4864050;29;20052;-78
2021/12/08 09:56:25;;;;;;;12.48;10.40;;;;;;;;;;4904129;29;20167;-78
2021/12/08 09:58:53;;;;;;;13.68;10.70;;;;;;;;;;4886918;29;20050;-78
2021/12/08 10:01:22;;;;;;;16.17;12.27;;;;;;;;;;4910179;29;20484;-78
2021/12/08 10:03:51;;;;;;;17.10;12.10;;;;;;;;;;4910898;29;20708;-78
2021/12/08 10:06:19;;;;;;;13.07;10.60;;;;;;;;;;4909768;29;20087;-78
2021/12/08 10:08:48;;;;;;;12.27;10.50;;;;;;;;;;4915250;29;20103;-77
2021/12/08 10:11:23;;;;;;;12.73;9.90;;;;;;;;;;4908548;29;20054;-78
2021/12/08 10:13:50;;;;;;;11.77;9.57;;;;;;;;;;4893030;29;20044;-78
2021/12/08 10:16:18;;;;;;;11.35;9.25;;;;;;;;;;4906540;29;20147;-78
2021/12/08 10:18:47;;;;;;;11.48;9.05;;;;;;;;;;4907376;29;20044;-78
2021/12/08 10:21:15;;;;;;;13.80;8.52;;;;;;;;;;4908829;29;20072;-77
2021/12/08 10:23:44;;;;;;;10.20;8.35;;;;;;;;;;4892350;29;20087;-78
2021/12/08 10:26:16;;;;;;;9.05;7.50;;;;;;;;;;4882972;29;20384;-78
2021/12/08 10:28:45;;;;;;;11.77;8.70;;;;;;;;;;4903950;29;20474;-76
2021/12/08 10:31:26;;;;;;;9.55;8.55;;;;;;;;;;4900369;29;20077;-76
2021/12/08 10:34:21;;;;;;;11.98;8.95;;;;;;;;;;4897382;29;20060;-77
2021/12/08 10:36:53;;;;;;;11.52;7.65;;;;;;;;;;4895719;29;20148;-77
2021/12/08 10:39:20;;;;;;;8.13;7.05;;;;;;;;;;4879070;29;20052;-77
2021/12/08 10:41:48;;;;;;;9.80;8.50;;;;;;;;;;4891519;29;20048;-77
2021/12/08 10:44:52;;;;;;;13.10;9.25;;;;;;;;;;4896543;29;20120;-77
2021/12/08 10:47:31;;;;;;;11.98;8.35;;;;;;;;;;4901564;29;20121;-77
2021/12/08 10:55:23;;;;;;;14.07;9.07;;;;;;;;;;4904546;29;20059;-76
2021/12/08 10:57:55;;;;;;;10.18;8.07;;;;;;;;;;4911767;29;20046;-76
2021/12/08 11:00:29;;;;;;;14.73;9.85;;;;;;;;;;4912044;29;20063;-77
2021/12/08 11:03:04;;;;;;;11.50;9.18;;;;;;;;;;4913624;29;20048;-77
2021/12/08 11:05:40;;;;;;;14.70;9.43;;;;;;;;;;4911171;29;20048;-78
2021/12/08 11:08:28;;;;;;;12.65;9.40;;;;;;;;;;4910961;29;20052;-77
2021/12/08 11:10:59;;;;;;;13.30;9.90;;;;;;;;;;4917272;29;20150;-77
2021/12/08 11:13:28;;;;;;;14.65;10.95;;;;;;;;;;4931554;29;20126;-78
2021/12/08 11:16:19;;;;;;;15.10;10.50;;;;;;;;;;4926069;29;20048;-77
2021/12/08 11:18:48;;;;;;;15.52;11.73;;;;;;;;;;4903573;29;20469;-77
2021/12/08 11:21:21;;;;;;;17.73;12.50;;;;;;;;;;4896224;29;20052;-77
2021/12/08 11:24:15;;;;;;;14.15;10.30;;;;;;;;;;4911030;29;20103;-78
2021/12/08 11:26:47;;;;;;;15.90;11.63;;;;;;;;;;4907673;29;20047;-77
2021/12/08 11:29:17;;;;;;;16.52;10.82;;;;;;;;;;4909840;29;20048;-77
2021/12/08 11:31:46;;;;;;;15.32;11.25;;;;;;;;;;4901022;29;20513;-77
2021/12/08 11:34:24;;;;;;;16.88;11.30;;;;;;;;;;4901197;29;20071;-77
2021/12/08 11:37:03;;;;;;;18.95;11.55;;;;;;;;;;4906934;29;20572;-77
2021/12/08 11:39:32;;;;;;;14.75;11.07;;;;;;;;;;4899613;29;20048;-76
2021/12/08 11:42:06;;;;;;;14.10;10.45;;;;;;;;;;4906013;29;20127;-77
2021/12/08 11:44:36;;;;;;;15.65;10.60;;;;;;;;;;4887283;29;20050;-77
2021/12/08 11:47:08;;;;;;;13.50;9.90;;;;;;;;;;4892782;29;20040;-76
2021/12/08 11:49:41;;;;;;;10.80;7.50;;;;;;;;;;4907658;29;20039;-77
2021/12/08 11:52:13;;;;;;;17.67;10.48;;;;;;;;;;4906363;29;20079;-78
2021/12/08 11:54:42;;;;;;;15.27;10.65;;;;;;;;;;4903664;29;20214;-76
2021/12/08 11:57:18;;;;;;;16.83;9.93;;;;;;;;;;4897237;29;20492;-76
2021/12/08 11:59:55;;;;;;;12.60;8.50;;;;;;;;;;4902567;29;20386;-76
2021/12/08 12:02:25;;;;;;;15.43;9.82;;;;;;;;;;4902855;29;20194;-76
2021/12/08 12:04:53;;;;;;;18.52;12.43;;;;;;;;;;4904704;29;20076;-76
2021/12/08 12:07:21;;;;;;;16.80;11.48;;;;;;;;;;4893591;29;20315;-76
2021/12/08 12:09:49;;;;;;;15.57;11.50;;;;;;;;;;4917646;29;20115;-77
2021/12/08 12:12:17;;;;;;;16.33;11.07;;;;;;;;;;4915987;29;20155;-76
2021/12/08 12:14:47;;;;;;;18.00;12.32;;;;;;;;;;4899674;29;20084;-76
2021/12/08 12:17:18;;;;;;;18.40;12.98;;;;;;;;;;4917104;23;20115;-75
2021/12/08 12:19:56;;;;;;;15.52;12.00;;;;;;;;;;4947764;28;20039;-78
2021/12/08 12:22:23;;;;;;;18.38;12.63;;;;;;;;;;4949065;29;20046;-79
2021/12/08 12:24:50;;;;;;;16.35;12.10;;;;;;;;;;4952933;29;20058;-78
2021/12/08 12:27:24;;;;;;;16.70;11.90;;;;;;;;;;4918942;29;20043;-78
2021/12/08 12:29:57;;;;;;;15.60;10.73;;;;;;;;;;4953894;28;20043;-78
2021/12/08 12:32:43;;;;;;;16.27;12.25;;;;;;;;;;4953962;28;20047;-77
2021/12/08 12:35:21;;;;;;;20.35;13.48;;;;;;;;;;4955248;29;20047;-78
2021/12/08 12:37:50;;;;;;;17.45;11.85;;;;;;;;;;4936688;28;20122;-77
2021/12/08 12:40:19;;;;;;;18.92;13.15;;;;;;;;;;4956158;28;20050;-78
2021/12/08 12:42:49;;;;;;;15.77;11.48;;;;;;;;;;4937478;29;20043;-78
2021/12/08 12:45:16;;;;;;;19.20;11.75;;;;;;;;;;4953949;28;20043;-78
2021/12/08 12:48:03;;;;;;;17.75;12.32;;;;;;;;;;4954739;28;20042;-78
2021/12/08 12:50:31;;;;;;;16.35;12.00;;;;;;;;;;4957175;29;20043;-78
2021/12/08 12:52:59;;;;;;;17.10;11.93;;;;;;;;;;4953807;28;20035;-78
2021/12/08 12:55:31;;;;;;;14.25;11.38;;;;;;;;;;4954497;29;20049;-79
2021/12/08 12:58:04;;;;;;;15.95;12.40;;;;;;;;;;4930429;29;20039;-79
2021/12/08 13:00:34;;;;;;;14.65;11.15;;;;;;;;;;4953196;28;20506;-79
2021/12/08 13:03:03;;;;;;;13.77;10.05;;;;;;;;;;4956273;28;20071;-80
2021/12/08 13:05:44;;;;;;;15.52;11.63;;;;;;;;;;4939585;29;20138;-79
2021/12/08 13:08:12;;;;;;;13.38;10.40;;;;;;;;;;4952809;28;20066;-79
2021/12/08 13:10:40;;;;;;;19.17;12.02;;;;;;;;;;4960435;28;20134;-78
2021/12/08 13:13:11;;;;;;;19.52;12.55;;;;;;;;;;4950152;28;20532;-79
2021/12/08 13:15:41;;;;;;;13.13;9.02;;;;;;;;;;4953869;29;20417;-78
2021/12/08 13:18:11;;;;;;;15.57;10.50;;;;;;;;;;4953265;28;20039;-80
2021/12/08 13:20:41;;;;;;;13.45;10.10;;;;;;;;;;4957986;29;20043;-78
2021/12/08 13:23:13;;;;;;;15.63;10.50;;;;;;;;;;4952820;29;20032;-79
2021/12/08 13:26:02;;;;;;;13.30;10.63;;;;;;;;;;4938643;28;20073;-78
2021/12/08 13:29:04;;;;;;;12.88;9.65;;;;;;;;;;4951664;28;20047;-79
2021/12/08 13:31:27;;;;;;;18.23;11.60;;;;;;;;;;4935211;29;20390;-79
2021/12/08 13:33:57;;;;;;;14.55;10.02;;;;;;;;;;4956604;28;20061;-79
2021/12/08 13:36:31;;;;;;;15.60;10.23;;;;;;;;;;4956325;29;20058;-79
2021/12/08 13:38:59;;;;;;;14.70;10.73;;;;;;;;;;4961395;28;20106;-79
2021/12/08 13:41:28;;;;;;;14.35;10.98;;;;;;;;;;4925619;29;20106;-79
2021/12/08 13:43:56;;;;;;;15.05;10.30;;;;;;;;;;4952397;29;20047;-79
2021/12/08 13:46:39;;;;;;;16.92;11.77;;;;;;;;;;4923096;29;20043;-78
2021/12/08 13:49:21;;;;;;;15.30;12.00;;;;;;;;;;4955718;28;20047;-79
2021/12/08 13:52:07;;;;;;;14.07;11.25;;;;;;;;;;4953411;28;20505;-79
2021/12/08 13:54:36;;;;;;;14.57;11.98;;;;;;;;;;4961079;28;20077;-78
2021/12/08 13:57:22;;;;;;;19.00;12.07;;;;;;;;;;4968298;28;20115;-79
2021/12/08 13:59:55;;;;;;;21.10;14.00;;;;;;;;;;4944808;28;20043;-79
2021/12/08 14:02:24;;;;;;;19.02;12.93;;;;;;;;;;4934711;29;20057;-78
2021/12/08 14:05:02;;;;;;;17.33;12.82;;;;;;;;;;4950959;29;20054;-79
2021/12/08 14:07:36;;;;;;;16.98;13.15;;;;;;;;;;4946968;28;20047;-79
2021/12/08 14:10:14;;;;;;;22.65;14.70;;;;;;;;;;4937915;28;20043;-80
2021/12/08 14:12:46;;;;;;;22.23;14.70;;;;;;;;;;4957847;29;20075;-79
2021/12/08 14:15:13;;;;;;;;;;;;;;;;;;4962165;28;20078;-79
2021/12/08 14:17:40;;;;;;;22.33;15.07;;;;;;;;;;4958202;28;19922;-79
2021/12/08 14:20:24;;;;;;;20.33;14.50;;;;;;;;;;4958957;28;20073;-79
2021/12/08 14:22:51;;;;;;;22.38;15.55;;;;;;;;;;4959649;28;20046;-79
2021/12/08 14:25:29;;;;;;;21.35;15.07;;;;;;;;;;4958678;29;20047;-79
2021/12/08 14:27:56;;;;;;;23.67;15.95;;;;;;;;;;4958506;29;20074;-79
2021/12/08 14:30:24;;;;;;;20.52;14.60;;;;;;;;;;4956873;28;20047;-79
2021/12/08 14:33:04;;;;;;;27.48;17.02;;;;;;;;;;4959088;29;20134;-80
2021/12/08 14:35:31;;;;;;;23.50;16.23;;;;;;;;;;4957874;28;20130;-78
2021/12/08 14:38:03;;;;;;;28.20;18.10;;;;;;;;;;4956064;28;20055;-78
2021/12/08 14:40:30;;;;;;;23.40;15.93;;;;;;;;;;4937746;29;20077;-79
2021/12/08 14:42:58;;;;;;;26.13;17.02;;;;;;;;;;4958945;28;20126;-80
2021/12/08 14:45:31;;;;;;;21.98;15.05;;;;;;;;;;4961151;28;20050;-80
2021/12/08 14:47:58;;;;;;;24.92;17.35;;;;;;;;;;4944504;28;20082;-80
2021/12/08 14:50:26;;;;;;;34.95;18.48;;;;;;;;;;4965125;28;20142;-79
2021/12/08 14:52:53;;;;;;;42.08;22.80;;;;;;;;;;4957243;28;20156;-79
2021/12/08 14:55:25;;;;;;;;;;;;;;;;;;4958409;29;20523;-79
2021/12/08 14:57:52;;;;;;;28.80;16.58;;;;;;;;;;4942319;28;19922;-80
2021/12/08 15:00:22;;;;;;;27.42;17.13;;;;;;;;;;4946931;29;20051;-79
2021/12/08 15:03:00;;;;;;;29.45;18.23;;;;;;;;;;4959950;28;20043;-79
2021/12/08 15:05:28;;;;;;;29.00;18.90;;;;;;;;;;4960150;29;20048;-79
2021/12/08 15:07:55;;;;;;;29.67;17.98;;;;;;;;;;4961064;28;20039;-80
2021/12/08 15:10:27;;;;;;;27.30;16.67;;;;;;;;;;4968077;28;20062;-78
2021/12/08 15:13:16;;;;;;;22.83;14.88;;;;;;;;;;4964150;28;20058;-80
2021/12/08 15:15:44;;;;;;;29.83;18.15;;;;;;;;;;4961694;28;20061;-79
2021/12/08 15:18:16;;;;;;;23.77;17.13;;;;;;;;;;4946304;29;20134;-78
2021/12/08 15:21:02;;;;;;;27.00;17.60;;;;;;;;;;4964639;28;20410;-78
2021/12/08 15:23:50;;;;;;;27.08;17.15;;;;;;;;;;4946018;28;20042;-80
2021/12/08 15:26:19;;;;;;;29.40;17.08;;;;;;;;;;4957347;28;20039;-79
2021/12/08 15:28:48;;;;;;;30.27;17.30;;;;;;;;;;4959343;28;20048;-79
2021/12/08 15:31:16;;;;;;;37.13;20.88;;;;;;;;;;4958595;28;20043;-80
2021/12/08 15:33:47;;;;;;;31.17;19.02;;;;;;;;;;4959087;28;20130;-80
2021/12/08 15:36:16;;;;;;;32.47;19.83;;;;;;;;;;4938461;29;20062;-79
2021/12/08 15:38:45;;;;;;;31.65;19.55;;;;;;;;;;4955290;28;20054;-78
2021/12/08 15:41:14;;;;;;;33.40;20.23;;;;;;;;;;4957401;28;20043;-79
2021/12/08 15:43:41;;;;;;;28.98;17.67;;;;;;;;;;4941419;28;20051;-79
2021/12/08 15:46:10;;;;;;;28.88;16.10;;;;;;;;;;4962965;28;20039;-79
2021/12/08 15:48:41;;;;;;;24.67;16.55;;;;;;;;;;4951110;28;20074;-78